Portada
METAR-TAF:

METAR-TAF

Aeroports :

Dubbo, Austràlia

latitud: 32-12S, longitud: 148-34E, altitud: 275 m

Observació

L'informe es va fer fa 15 minuts, a les 00:00 UTC
Vent 17 kt del Nord/Nord-Oest
Temperatura 32°C
Humitat 26%
Pressió 1013 hPa
Visibilitat: 9000 m

METAR: YSDU 220000Z AUTO 34017KT 9000 // ////// 32/10 Q1013 RF00.0/000.0

Hora: 11:15 (00:15 UTC)

Pronòstic

L'informe es va fer fa 43 minuts, a les 23:32 UTC
Pronòstic vàlid del 22 a les 00 UTC al 22 a les 18 UTC
Vent 15 kt del Nord amb ràfegues de 25 kt
Visibilitat: 8000 m
fum
A partir de les 22 a les 0200 UTC
Vent 14 kt del Oest/Nord-Oest
Visibilitat 10 km o més
fum
Evolucionant progressivament
l' 22 a les 09 UTC al 22 a les 11 UTC
Vent 3 kt amb direcció variable
Visibilitat: 8000 m
fum
Probabilitat 40%
l' 22 a les 00 UTC al 22 a les 18 UTC
Visibilitat: 4000 m
fum

TAF: YSDU 212332Z 2200/2218 35015G25KT 8000 FU NSC FM220200 30014KT 9999 FU NSC BECMG 2209/2211 VRB03KT 8000 FU NSC PROB40 2200/2218 4000 FU

Observacions i pronòstics meteorològics de més de 4000 aeroports (METAR i TAF).

Les estacions disponibles són els punts grocs i vermells al mapa.

Posi el ratolí al punt desitjat per veure el nom de l'estació.

Feu clic per veure les observacions i els pronòstics meteorològics.

Per canviar el mapa: feu clic els botons verds amb una creu de color negre per apropar; al botó verd amb un guió per allunyar la imatge; o en les fletxes verdes per a mapes adjacents.


METAR-TAF: